createdAt,value
2017-03-31T00:00:01.493Z,95.27
2017-03-31T00:01:10.707Z,94.6
2017-03-31T00:02:20.320Z,94.31
2017-03-31T00:03:29.212Z,94.51
2017-03-31T00:04:38.106Z,94.12
2017-03-31T00:05:46.996Z,94.41
2017-03-31T00:06:55.889Z,94.51
2017-03-31T00:08:04.879Z,95.65
2017-03-31T00:09:13.771Z,97.37
2017-03-31T00:10:22.659Z,96.13
2017-03-31T00:11:32.538Z,96.61
2017-03-31T00:12:41.431Z,96.61
2017-03-31T00:13:50.617Z,96.75
2017-03-31T00:14:59.504Z,96.94
2017-03-31T00:16:08.723Z,97.22
2017-03-31T00:17:17.611Z,96.17
2017-03-31T00:18:26.823Z,96.75
2017-03-31T00:19:35.709Z,96.75
2017-03-31T00:20:44.599Z,97.22
2017-03-31T00:21:53.490Z,97.22
2017-03-31T00:23:02.383Z,96.46
2017-03-31T00:24:11.272Z,96.17
2017-03-31T00:25:20.261Z,96.94
2017-03-31T00:26:29.147Z,96.75
2017-03-31T00:27:38.397Z,96.94
2017-03-31T00:28:47.286Z,97.8
2017-03-31T00:29:56.175Z,98.37
2017-03-31T00:31:05.214Z,97.71
2017-03-31T00:32:14.108Z,97.42
2017-03-31T00:33:22.992Z,98.18
2017-03-31T00:34:31.886Z,97.22
2017-03-31T00:35:40.772Z,97.8
2017-03-31T00:36:49.817Z,97.61
2017-03-31T00:37:59.030Z,97.42
2017-03-31T00:39:07.920Z,97.94
2017-03-31T00:40:16.806Z,98.32
2017-03-31T00:41:25.694Z,98.56
2017-03-31T00:42:34.735Z,98.7
2017-03-31T00:43:43.946Z,98.8
2017-03-31T00:44:52.840Z,98.7
2017-03-31T00:46:02.055Z,98.8
2017-03-31T00:47:10.946Z,98.9
2017-03-31T00:48:19.987Z,99.99
2017-03-31T00:49:28.877Z,98.99
2017-03-31T00:50:38.097Z,99.46
2017-03-31T00:51:46.987Z,98.9
2017-03-31T00:52:56.203Z,99.08
2017-03-31T00:54:05.178Z,99.08
2017-03-31T00:55:14.067Z,99.95
2017-03-31T00:56:22.956Z,99.99
2017-03-31T00:57:31.878Z,99.99
2017-03-31T00:58:41.090Z,99.85
2017-03-31T00:59:50.133Z,99.66
2017-03-31T01:00:59.025Z,99.85
2017-03-31T01:02:07.918Z,99.99
2017-03-31T01:03:16.803Z,99.66
2017-03-31T01:04:26.021Z,99.85
2017-03-31T01:05:35.161Z,98.99
2017-03-31T01:06:44.047Z,98.8
2017-03-31T01:07:52.937Z,99.18
2017-03-31T01:09:01.827Z,98.42
2017-03-31T01:10:10.744Z,98.61
2017-03-31T01:11:19.632Z,98.61
2017-03-31T01:12:29.174Z,98.8
2017-03-31T01:13:38.073Z,98.51
2017-03-31T01:14:47.283Z,98.51
2017-03-31T01:15:56.173Z,97.94
2017-03-31T01:17:05.448Z,98.22
2017-03-31T01:18:14.336Z,98.32
2017-03-31T01:19:23.230Z,98.13
2017-03-31T01:20:32.119Z,98.42
2017-03-31T01:21:41.011Z,98.03
2017-03-31T01:22:50.273Z,97.85
2017-03-31T01:23:59.160Z,98.22
2017-03-31T01:25:08.051Z,98.03
2017-03-31T01:26:16.992Z,98.03
2017-03-31T01:27:25.887Z,98.13
2017-03-31T01:28:35.250Z,97.75
2017-03-31T01:29:44.467Z,97.94
2017-03-31T01:30:53.363Z,98.13
2017-03-31T01:32:02.251Z,97.94
2017-03-31T01:33:11.141Z,97.75
2017-03-31T01:34:20.353Z,97.75
2017-03-31T01:35:29.247Z,97.94
2017-03-31T01:36:38.134Z,97.94
2017-03-31T01:37:47.025Z,98.22
2017-03-31T01:38:55.943Z,97.94
2017-03-31T01:40:05.135Z,97.94
2017-03-31T01:41:14.026Z,98.42
2017-03-31T01:42:22.916Z,98.13
2017-03-31T01:43:31.806Z,98.03
2017-03-31T01:44:40.697Z,98.32
2017-03-31T01:45:49.636Z,97.94
2017-03-31T01:46:58.856Z,98.42
2017-03-31T01:48:07.751Z,98.13
2017-03-31T01:49:16.645Z,98.99
2017-03-31T01:50:25.859Z,98.7
2017-03-31T01:51:34.797Z,98.75
2017-03-31T01:52:44.011Z,98.75
2017-03-31T01:53:53.224Z,98.61
2017-03-31T01:55:02.115Z,98.46
2017-03-31T01:56:11.010Z,98.7
2017-03-31T01:57:20.086Z,98.65
2017-03-31T01:58:29.300Z,98.75
2017-03-31T01:59:38.516Z,98.7
2017-03-31T02:00:47.732Z,99.04
2017-03-31T02:01:56.946Z,98.56
2017-03-31T02:03:06.311Z,98.36
2017-03-31T02:04:15.527Z,99.04
2017-03-31T02:05:24.739Z,98.85
2017-03-31T02:06:33.635Z,98.65
2017-03-31T02:07:42.522Z,98.94
2017-03-31T02:08:51.711Z,98.36
2017-03-31T02:10:00.941Z,99.13
2017-03-31T02:11:10.154Z,98.46
2017-03-31T02:12:19.042Z,98.65
2017-03-31T02:13:27.933Z,98.75
2017-03-31T02:14:36.922Z,98.56
2017-03-31T02:15:46.144Z,98.46
2017-03-31T02:16:55.357Z,98.94
2017-03-31T02:18:04.602Z,98.65
2017-03-31T02:19:13.490Z,98.65
2017-03-31T02:20:22.525Z,98.56
2017-03-31T02:21:31.410Z,98.46
2017-03-31T02:22:40.301Z,98.94
2017-03-31T02:23:49.190Z,98.94
2017-03-31T02:24:58.080Z,98.46
2017-03-31T02:26:07.124Z,98.75
2017-03-31T02:27:16.015Z,98.75
2017-03-31T02:28:25.231Z,98.85
2017-03-31T02:29:34.124Z,98.36
2017-03-31T02:30:43.015Z,98.65
2017-03-31T02:31:52.528Z,99.22
2017-03-31T02:33:01.453Z,98.85
2017-03-31T02:34:10.340Z,98.75
2017-03-31T02:35:19.230Z,99.22
2017-03-31T02:36:28.448Z,98.65
2017-03-31T02:37:38.236Z,99.04
2017-03-31T02:38:47.120Z,98.85
2017-03-31T02:39:56.017Z,98.85
2017-03-31T02:41:05.226Z,98.94
2017-03-31T02:42:14.112Z,99.51
2017-03-31T02:43:23.625Z,98.94
2017-03-31T02:44:32.842Z,99.51
2017-03-31T02:45:42.390Z,99.89
2017-03-31T02:46:51.279Z,99.51
2017-03-31T02:48:00.168Z,99.8
2017-03-31T02:49:09.465Z,98.94
2017-03-31T02:50:18.386Z,99.8
2017-03-31T02:51:27.276Z,99.6
2017-03-31T02:52:36.167Z,99.89
2017-03-31T02:53:45.059Z,99.6
2017-03-31T02:54:54.245Z,99.99
2017-03-31T02:56:03.455Z,99.6
2017-03-31T02:57:12.348Z,99.99
2017-03-31T02:58:21.562Z,99.99
2017-03-31T02:59:30.448Z,99.99
2017-03-31T03:00:39.435Z,99.7
2017-03-31T03:01:48.319Z,99.89
2017-03-31T03:02:57.208Z,99.51
2017-03-31T03:04:06.095Z,99.99
2017-03-31T03:05:14.984Z,99.99
2017-03-31T03:06:24.027Z,99.99
2017-03-31T03:07:32.916Z,99.99
2017-03-31T03:08:42.126Z,99.99
2017-03-31T03:09:51.338Z,99.99
2017-03-31T03:11:00.224Z,99.99
2017-03-31T03:12:09.164Z,99.99
2017-03-31T03:13:18.382Z,99.99
2017-03-31T03:14:27.271Z,99.99
2017-03-31T03:15:36.484Z,99.99
2017-03-31T03:16:45.371Z,99.99
2017-03-31T03:17:54.986Z,99.99
2017-03-31T03:19:04.201Z,99.99
2017-03-31T03:20:13.085Z,99.99
2017-03-31T03:21:21.974Z,99.99
2017-03-31T03:22:30.865Z,99.99
2017-03-31T03:23:39.809Z,99.99
2017-03-31T03:24:48.695Z,99.99
2017-03-31T03:25:57.581Z,99.99
2017-03-31T03:27:06.471Z,99.99
2017-03-31T03:28:15.359Z,99.99
2017-03-31T03:29:24.655Z,99.99
2017-03-31T03:30:33.867Z,99.99
2017-03-31T03:31:42.761Z,99.99
2017-03-31T03:32:51.644Z,99.99
2017-03-31T03:34:00.535Z,99.99
2017-03-31T03:35:09.902Z,99.99
2017-03-31T03:36:18.793Z,99.99
2017-03-31T03:37:28.010Z,99.99
2017-03-31T03:38:36.900Z,99.99
2017-03-31T03:39:45.791Z,99.99
2017-03-31T03:40:54.929Z,99.99
2017-03-31T03:42:03.822Z,99.99
2017-03-31T03:43:13.033Z,99.99
2017-03-31T03:44:21.918Z,99.99
2017-03-31T03:45:30.803Z,99.99
2017-03-31T03:46:40.066Z,99.99
2017-03-31T03:47:48.990Z,99.99
2017-03-31T03:48:57.881Z,99.99
2017-03-31T03:50:06.772Z,99.99
2017-03-31T03:51:15.988Z,99.99
2017-03-31T03:52:24.904Z,99.99
2017-03-31T03:53:34.117Z,99.99
2017-03-31T03:54:42.998Z,99.99
2017-03-31T03:55:52.214Z,99.99
2017-03-31T03:57:01.104Z,99.99
2017-03-31T03:58:10.313Z,99.99
2017-03-31T03:59:19.198Z,99.99
2017-03-31T04:00:28.416Z,99.99
2017-03-31T04:01:37.302Z,99.99
2017-03-31T04:02:46.189Z,99.99
2017-03-31T04:03:55.178Z,99.99
2017-03-31T04:05:04.389Z,99.99
2017-03-31T04:06:13.277Z,99.99
2017-03-31T04:07:22.497Z,99.99
2017-03-31T04:08:31.418Z,99.99
2017-03-31T04:09:40.457Z,99.99
2017-03-31T04:10:49.345Z,99.99
2017-03-31T04:11:58.237Z,99.99
2017-03-31T04:13:07.448Z,99.99
2017-03-31T04:14:16.960Z,99.99
2017-03-31T04:15:26.004Z,99.99
2017-03-31T04:16:34.898Z,99.99
2017-03-31T04:17:43.805Z,99.99
2017-03-31T04:18:52.697Z,99.99
2017-03-31T04:20:01.597Z,99.99
2017-03-31T04:21:11.058Z,99.99
2017-03-31T04:22:20.272Z,99.99
2017-03-31T04:23:29.482Z,99.99
2017-03-31T04:24:38.374Z,99.99
2017-03-31T04:25:47.588Z,99.99
2017-03-31T04:26:56.622Z,99.99
2017-03-31T04:28:05.512Z,99.99
2017-03-31T04:29:14.726Z,99.99
2017-03-31T04:30:23.613Z,99.99
2017-03-31T04:31:32.510Z,99.99
2017-03-31T04:32:41.403Z,99.99
2017-03-31T04:33:50.298Z,99.99
2017-03-31T04:34:59.187Z,99.99
2017-03-31T04:36:08.401Z,99.99
2017-03-31T04:37:17.293Z,99.99
2017-03-31T04:38:26.282Z,99.99
2017-03-31T04:39:35.498Z,99.99
2017-03-31T04:40:44.712Z,99.99
2017-03-31T04:41:53.600Z,99.99
2017-03-31T04:43:02.488Z,99.99
2017-03-31T04:44:11.430Z,99.99
2017-03-31T04:45:20.317Z,99.99
2017-03-31T04:46:29.211Z,99.99
2017-03-31T04:47:38.425Z,99.99
2017-03-31T04:48:47.313Z,99.99
2017-03-31T04:49:56.356Z,99.99
2017-03-31T04:51:05.605Z,99.99
2017-03-31T04:52:14.497Z,99.99
2017-03-31T04:53:23.380Z,99.99
2017-03-31T04:54:32.590Z,99.99
2017-03-31T04:55:41.581Z,99.99
2017-03-31T04:56:50.466Z,99.99
2017-03-31T04:57:59.999Z,99.99
2017-03-31T04:59:08.884Z,99.99
2017-03-31T05:00:17.775Z,99.99
2017-03-31T05:01:26.717Z,99.99
2017-03-31T05:02:35.633Z,99.99
2017-03-31T05:03:44.525Z,99.99
2017-03-31T05:04:54.067Z,99.99
2017-03-31T05:06:02.954Z,99.99
2017-03-31T05:07:12.003Z,99.99
2017-03-31T05:08:20.897Z,99.99
2017-03-31T05:09:30.116Z,99.99
2017-03-31T05:10:39.330Z,99.99
2017-03-31T05:11:48.219Z,99.99
2017-03-31T05:12:57.617Z,99.99
2017-03-31T05:14:06.507Z,99.99
2017-03-31T05:15:15.724Z,99.99
2017-03-31T05:16:24.610Z,99.99
2017-03-31T05:17:33.826Z,99.99
2017-03-31T05:18:42.718Z,99.99
2017-03-31T05:19:51.608Z,99.99
2017-03-31T05:21:01.144Z,99.99
2017-03-31T05:22:10.038Z,99.99
2017-03-31T05:23:19.632Z,99.99
2017-03-31T05:24:28.670Z,99.99
2017-03-31T05:25:37.558Z,99.99
2017-03-31T05:26:46.446Z,99.99
2017-03-31T05:27:55.341Z,99.99
2017-03-31T05:29:04.230Z,99.99
2017-03-31T05:30:13.320Z,99.99
2017-03-31T05:31:22.220Z,99.99
2017-03-31T05:32:31.112Z,99.99
2017-03-31T05:33:40.003Z,99.99
2017-03-31T05:34:48.894Z,99.99
2017-03-31T05:35:57.934Z,99.99
2017-03-31T05:37:06.824Z,99.99
2017-03-31T05:38:15.722Z,99.99
2017-03-31T05:39:24.608Z,99.99
2017-03-31T05:40:33.831Z,99.99
2017-03-31T05:41:42.769Z,99.99
2017-03-31T05:42:51.665Z,99.99
2017-03-31T05:44:00.554Z,99.99
2017-03-31T05:45:09.442Z,99.99
2017-03-31T05:46:18.331Z,99.99
2017-03-31T05:47:27.597Z,99.99
2017-03-31T05:48:36.484Z,99.99
2017-03-31T05:49:45.381Z,99.99
2017-03-31T05:50:54.600Z,99.99
2017-03-31T05:52:03.493Z,99.99
2017-03-31T05:53:12.759Z,99.99
2017-03-31T05:54:21.654Z,99.99
2017-03-31T05:55:30.547Z,99.99
2017-03-31T05:56:39.440Z,99.99
2017-03-31T05:57:48.336Z,99.99
2017-03-31T05:58:57.475Z,99.99
2017-03-31T06:00:06.365Z,99.99
2017-03-31T06:01:15.255Z,99.99
2017-03-31T06:02:24.149Z,99.99
2017-03-31T06:03:33.040Z,99.99
2017-03-31T06:04:42.031Z,99.99
2017-03-31T06:05:50.921Z,99.99
2017-03-31T06:06:59.812Z,99.99
2017-03-31T06:08:08.712Z,99.99
2017-03-31T06:09:17.601Z,99.99
2017-03-31T06:10:26.541Z,99.99
2017-03-31T06:11:35.432Z,99.99
2017-03-31T06:12:44.323Z,99.99
2017-03-31T06:13:53.219Z,99.99
2017-03-31T06:15:02.113Z,99.99
2017-03-31T06:16:11.383Z,99.99
2017-03-31T06:17:20.606Z,99.99
2017-03-31T06:18:29.496Z,99.99
2017-03-31T06:19:38.405Z,99.99
2017-03-31T06:20:47.301Z,99.89
2017-03-31T06:21:56.663Z,99.99
2017-03-31T06:23:06.204Z,98.75
2017-03-31T06:24:15.088Z,99.51
2017-03-31T06:25:23.976Z,99.13
2017-03-31T06:26:32.864Z,98.75
2017-03-31T06:27:41.751Z,99.41
2017-03-31T06:28:50.641Z,99.6
2017-03-31T06:29:59.551Z,98.46
2017-03-31T06:31:08.767Z,98.56
2017-03-31T06:32:17.986Z,98.94
2017-03-31T06:33:27.026Z,98.85
2017-03-31T06:34:35.914Z,98.46
2017-03-31T06:35:44.803Z,98.94
2017-03-31T06:36:53.689Z,98.36
2017-03-31T06:38:02.581Z,98.46
2017-03-31T06:39:11.944Z,98.36
2017-03-31T06:40:20.837Z,98.46
2017-03-31T06:41:29.726Z,98.27
2017-03-31T06:42:38.948Z,98.46
2017-03-31T06:43:47.870Z,98.65
2017-03-31T06:44:57.468Z,98.65
2017-03-31T06:46:07.011Z,98.85
2017-03-31T06:47:15.899Z,97.94
2017-03-31T06:48:24.788Z,97.94
2017-03-31T06:49:33.683Z,98.56
2017-03-31T06:50:43.048Z,98.42
2017-03-31T06:51:51.945Z,98.27
2017-03-31T06:53:01.173Z,98.03
2017-03-31T06:54:10.066Z,97.94
2017-03-31T06:55:18.960Z,98.42
2017-03-31T06:56:28.224Z,98.32
2017-03-31T06:57:37.111Z,98.8
2017-03-31T06:58:46.002Z,98.32
2017-03-31T06:59:54.895Z,98.42
2017-03-31T07:01:03.782Z,97.94
2017-03-31T07:02:12.821Z,98.42
2017-03-31T07:03:21.710Z,98.13
2017-03-31T07:04:30.603Z,98.32
2017-03-31T07:05:39.490Z,98.32
2017-03-31T07:06:48.706Z,97.75
2017-03-31T07:07:57.799Z,97.94
2017-03-31T07:09:06.703Z,98.13
2017-03-31T07:10:15.952Z,97.94
2017-03-31T07:11:24.840Z,97.94
2017-03-31T07:12:34.055Z,98.03
2017-03-31T07:13:42.992Z,97.94
2017-03-31T07:14:51.883Z,97.37
2017-03-31T07:16:00.805Z,98.03
2017-03-31T07:17:09.695Z,98.08
2017-03-31T07:18:18.586Z,98.13
2017-03-31T07:19:27.726Z,97.61
2017-03-31T07:20:36.617Z,97.99
2017-03-31T07:21:45.511Z,97.8
2017-03-31T07:22:54.403Z,98.18
2017-03-31T07:24:03.299Z,97.99
2017-03-31T07:25:12.344Z,98.18
2017-03-31T07:26:21.232Z,97.32
2017-03-31T07:27:30.447Z,97.42
2017-03-31T07:28:39.338Z,97.51
2017-03-31T07:29:48.229Z,97.42
2017-03-31T07:30:57.595Z,97.13
2017-03-31T07:32:06.495Z,97.42
2017-03-31T07:33:15.707Z,97.42
2017-03-31T07:34:24.608Z,96.94
2017-03-31T07:35:33.505Z,96.7
2017-03-31T07:36:43.668Z,96.46
2017-03-31T07:37:52.563Z,96.7
2017-03-31T07:39:01.454Z,96.42
2017-03-31T07:40:10.340Z,95.08
2017-03-31T07:41:19.234Z,95.65
2017-03-31T07:42:28.126Z,94.98
2017-03-31T07:43:37.016Z,94.41
2017-03-31T07:44:46.556Z,94.22
2017-03-31T07:45:55.769Z,93.36
2017-03-31T07:47:04.659Z,93.93
2017-03-31T07:48:13.802Z,93.6
2017-03-31T07:49:23.016Z,93.6
2017-03-31T07:50:31.912Z,93.6
2017-03-31T07:51:41.148Z,92.93
2017-03-31T07:52:50.037Z,93.12
2017-03-31T07:53:59.400Z,92.64
2017-03-31T07:55:08.293Z,92.74
2017-03-31T07:56:17.238Z,91.69
2017-03-31T07:57:26.126Z,92.36
2017-03-31T07:58:35.019Z,91.5
2017-03-31T07:59:44.157Z,91.5
2017-03-31T08:00:53.044Z,91.59
2017-03-31T08:02:01.933Z,90.92
2017-03-31T08:03:10.826Z,90.2
2017-03-31T08:04:19.718Z,90.3
2017-03-31T08:05:28.760Z,90.49
2017-03-31T08:06:37.971Z,90.39
2017-03-31T08:07:46.861Z,91.06
2017-03-31T08:08:55.748Z,89.73
2017-03-31T08:10:04.641Z,89.15
2017-03-31T08:11:13.584Z,89.15
2017-03-31T08:12:23.124Z,88.68
2017-03-31T08:13:32.020Z,88.48
2017-03-31T08:14:40.912Z,88.48
2017-03-31T08:15:50.135Z,88.48
2017-03-31T08:16:59.228Z,88.72
2017-03-31T08:18:08.124Z,87.66
2017-03-31T08:19:17.016Z,87.86
2017-03-31T08:20:25.909Z,87.95
2017-03-31T08:21:34.803Z,88.34
2017-03-31T08:22:44.599Z,87.66
2017-03-31T08:23:53.826Z,87.29
2017-03-31T08:25:03.063Z,86.8
2017-03-31T08:26:11.959Z,87
2017-03-31T08:27:20.852Z,87
2017-03-31T08:28:29.789Z,86.52
2017-03-31T08:29:39.008Z,87
2017-03-31T08:30:47.903Z,86.61
2017-03-31T08:31:57.156Z,86.37
2017-03-31T08:33:06.047Z,86.47
2017-03-31T08:34:15.291Z,85.99
2017-03-31T08:35:24.189Z,86.18
2017-03-31T08:36:33.412Z,85.89
2017-03-31T08:37:42.634Z,86.57
2017-03-31T08:38:51.528Z,85.8
2017-03-31T08:40:00.580Z,85.8
2017-03-31T08:41:09.816Z,86.28
2017-03-31T08:42:18.717Z,85.03
2017-03-31T08:43:27.628Z,85.55
2017-03-31T08:44:36.530Z,85.55
2017-03-31T08:45:45.731Z,86.13
2017-03-31T08:46:54.634Z,85.46
2017-03-31T08:48:03.860Z,86.41
2017-03-31T08:49:12.760Z,85.55
2017-03-31T08:50:21.662Z,85.27
2017-03-31T08:51:30.710Z,85.08
2017-03-31T08:52:39.604Z,84.88
2017-03-31T08:53:49.149Z,84.22
2017-03-31T08:54:58.365Z,84.26
2017-03-31T08:56:07.259Z,84.74
2017-03-31T08:57:16.250Z,84.45
2017-03-31T08:58:25.142Z,84.5
2017-03-31T08:59:34.037Z,85.12
2017-03-31T09:00:42.937Z,84.64
2017-03-31T09:01:51.835Z,85.31
2017-03-31T09:03:01.151Z,83.78
2017-03-31T09:04:10.048Z,83.3
2017-03-31T09:05:18.941Z,82.76
2017-03-31T09:06:28.482Z,82.57
2017-03-31T09:07:37.377Z,82.92
2017-03-31T09:08:46.520Z,83.59
2017-03-31T09:09:55.423Z,82.96
2017-03-31T09:11:04.357Z,81.9
2017-03-31T09:12:13.260Z,82.67
2017-03-31T09:13:22.476Z,82.48
2017-03-31T09:14:31.622Z,82.48
2017-03-31T09:15:40.548Z,81.52
2017-03-31T09:16:49.443Z,81.18
2017-03-31T09:17:58.333Z,80.22
2017-03-31T09:19:07.228Z,81.08
2017-03-31T09:20:16.170Z,80.51
2017-03-31T09:21:25.071Z,80.22
2017-03-31T09:22:33.972Z,80.32
2017-03-31T09:23:42.864Z,80.12
2017-03-31T09:24:52.109Z,79.45
2017-03-31T09:26:01.014Z,80.22
2017-03-31T09:27:09.910Z,79.21
2017-03-31T09:28:18.801Z,78.97
2017-03-31T09:29:27.692Z,78.25
2017-03-31T09:30:36.585Z,77.76
2017-03-31T09:31:45.580Z,77.67
2017-03-31T09:32:54.475Z,78.25
2017-03-31T09:34:03.693Z,77.86
2017-03-31T09:35:12.587Z,77.19
2017-03-31T09:36:21.485Z,77.29
2017-03-31T09:37:30.580Z,77.38
2017-03-31T09:38:39.807Z,78.34
2017-03-31T09:39:48.705Z,78.72
2017-03-31T09:40:57.599Z,77.58
2017-03-31T09:42:06.497Z,76.46
2017-03-31T09:43:15.539Z,76.94
2017-03-31T09:44:24.433Z,76.56
2017-03-31T09:45:33.976Z,76.56
2017-03-31T09:46:42.870Z,76.56
2017-03-31T09:47:51.764Z,75.31
2017-03-31T09:49:01.081Z,75.5
2017-03-31T09:50:09.977Z,75.7
2017-03-31T09:51:18.874Z,75.31
2017-03-31T09:52:27.768Z,75.21
2017-03-31T09:53:36.659Z,75.25
2017-03-31T09:54:45.855Z,74.96
2017-03-31T09:55:54.750Z,75.25
2017-03-31T09:57:04.300Z,73.04
2017-03-31T09:58:13.195Z,72.85
2017-03-31T09:59:22.093Z,73.43
2017-03-31T10:00:30.991Z,72.95
2017-03-31T10:01:40.213Z,72.18
2017-03-31T10:02:49.105Z,72.47
2017-03-31T10:03:58.035Z,72.28
2017-03-31T10:05:06.942Z,71.98
2017-03-31T10:06:15.943Z,71.73
2017-03-31T10:07:25.165Z,71.73
2017-03-31T10:08:34.056Z,71.64
2017-03-31T10:09:42.952Z,71.16
2017-03-31T10:10:52.176Z,71.64
2017-03-31T10:12:01.226Z,71.06
2017-03-31T10:13:10.122Z,70.29
2017-03-31T10:14:19.216Z,70.39
2017-03-31T10:15:28.117Z,70.49
2017-03-31T10:16:37.657Z,70.87
2017-03-31T10:17:46.701Z,71.83
2017-03-31T10:18:55.593Z,71.16
2017-03-31T10:20:04.490Z,71.83
2017-03-31T10:21:13.392Z,71.29
2017-03-31T10:22:22.288Z,71
2017-03-31T10:23:31.236Z,70.23
2017-03-31T10:24:40.139Z,70.14
2017-03-31T10:25:49.034Z,70.04
2017-03-31T10:26:57.932Z,68.41
2017-03-31T10:28:06.834Z,68.54
2017-03-31T10:29:15.884Z,68.51
2017-03-31T10:30:24.780Z,69.6
2017-03-31T10:31:34.007Z,69.5
2017-03-31T10:32:42.899Z,67.68
2017-03-31T10:33:51.796Z,67.77
2017-03-31T10:35:01.168Z,67.68
2017-03-31T10:36:10.426Z,67.38
2017-03-31T10:37:19.324Z,68.35
2017-03-31T10:38:28.219Z,66.91
2017-03-31T10:39:37.114Z,67.68
2017-03-31T10:40:46.161Z,67.32
2017-03-31T10:41:55.385Z,66.74
2017-03-31T10:43:04.287Z,65.97
2017-03-31T10:44:13.509Z,64.43
2017-03-31T10:45:22.408Z,65.3
2017-03-31T10:46:31.554Z,65.14
2017-03-31T10:47:40.456Z,64.08
2017-03-31T10:48:49.352Z,64.15
2017-03-31T10:49:58.582Z,63.67
2017-03-31T10:51:07.479Z,63.67
2017-03-31T10:52:16.633Z,63.28
2017-03-31T10:53:25.536Z,64.15
2017-03-31T10:54:34.437Z,63.67
2017-03-31T10:55:43.337Z,62.83
2017-03-31T10:56:52.239Z,62.74
2017-03-31T10:58:01.435Z,62.16
2017-03-31T10:59:10.334Z,62.54
2017-03-31T11:00:19.228Z,63.02
2017-03-31T11:01:28.125Z,62.93
2017-03-31T11:02:37.024Z,63.51
2017-03-31T11:03:46.448Z,62.83
2017-03-31T11:04:55.345Z,62.83
2017-03-31T11:06:04.561Z,63.31
2017-03-31T11:07:13.476Z,62.74
2017-03-31T11:08:22.377Z,62.83
2017-03-31T11:09:31.433Z,61.77
2017-03-31T11:10:40.663Z,61.87
2017-03-31T11:11:49.892Z,60.65
2017-03-31T11:12:58.797Z,62.48
2017-03-31T11:14:07.699Z,61.9
2017-03-31T11:15:17.074Z,60.94
2017-03-31T11:16:26.300Z,59.78
2017-03-31T11:17:35.262Z,59.78
2017-03-31T11:18:44.159Z,59.4
2017-03-31T11:19:53.056Z,58.82
2017-03-31T11:21:02.528Z,60.17
2017-03-31T11:22:11.426Z,60.46
2017-03-31T11:23:20.659Z,59.33
2017-03-31T11:24:29.558Z,59.23
2017-03-31T11:25:38.467Z,58.82
2017-03-31T11:26:47.844Z,59.01
2017-03-31T11:27:56.743Z,58.65
2017-03-31T11:29:05.641Z,57.79
2017-03-31T11:30:14.544Z,57.6
2017-03-31T11:31:23.447Z,56.92
2017-03-31T11:32:32.393Z,56.44
2017-03-31T11:33:41.290Z,56.63
2017-03-31T11:34:50.188Z,56.54
2017-03-31T11:35:59.086Z,57.5
2017-03-31T11:37:08.034Z,55.7
2017-03-31T11:38:17.584Z,54.44
2017-03-31T11:39:26.483Z,54.25
2017-03-31T11:40:35.383Z,54.64
2017-03-31T11:41:44.315Z,55.02
2017-03-31T11:42:53.214Z,55.12
2017-03-31T11:44:02.113Z,55.89
2017-03-31T11:45:11.333Z,55.7
2017-03-31T11:46:20.233Z,55.79
2017-03-31T11:47:29.140Z,56.09
2017-03-31T11:48:38.038Z,55.02
2017-03-31T11:49:47.234Z,54.54
2017-03-31T11:50:56.783Z,55.02
2017-03-31T11:52:06.009Z,55.51
2017-03-31T11:53:14.906Z,54.66
2017-03-31T11:54:23.819Z,53.22
2017-03-31T11:55:32.873Z,52.64
2017-03-31T11:56:42.127Z,53.51
2017-03-31T11:57:51.104Z,53.8
2017-03-31T11:59:00.381Z,54.57
2017-03-31T12:00:09.277Z,53.22
2017-03-31T12:01:18.431Z,52.83
2017-03-31T12:02:27.347Z,51.77
2017-03-31T12:03:36.244Z,51.87
2017-03-31T12:04:45.146Z,51.39
2017-03-31T12:05:54.373Z,51.29
2017-03-31T12:07:03.657Z,50.52
2017-03-31T12:08:12.557Z,50.81
2017-03-31T12:09:21.782Z,51.77
2017-03-31T12:10:31.018Z,50.23
2017-03-31T12:11:39.919Z,49.58
2017-03-31T12:12:48.875Z,50.45
2017-03-31T12:13:57.773Z,50.45
2017-03-31T12:15:06.679Z,50.26
2017-03-31T12:16:15.580Z,49.87
2017-03-31T12:17:24.485Z,49.1
2017-03-31T12:18:33.763Z,49.77
2017-03-31T12:19:42.669Z,49.68
2017-03-31T12:20:51.568Z,49.96
2017-03-31T12:22:00.799Z,49.8
2017-03-31T12:23:10.351Z,49.32
2017-03-31T12:24:19.658Z,49.9
2017-03-31T12:25:28.888Z,49.87
2017-03-31T12:26:38.114Z,49.99
2017-03-31T12:27:47.017Z,49.32
2017-03-31T12:28:55.918Z,49.9
2017-03-31T12:30:04.875Z,49.41
2017-03-31T12:31:13.783Z,50.18
2017-03-31T12:32:22.686Z,49.41
2017-03-31T12:33:31.590Z,49.02
2017-03-31T12:34:40.491Z,48.64
2017-03-31T12:35:49.563Z,49.51
2017-03-31T12:36:58.464Z,49.41
2017-03-31T12:38:07.365Z,49.02
2017-03-31T12:39:16.269Z,49.41
2017-03-31T12:40:25.175Z,48.76
2017-03-31T12:41:34.262Z,47.99
2017-03-31T12:42:43.498Z,45.79
2017-03-31T12:43:52.414Z,45.89
2017-03-31T12:45:01.641Z,44.24
2017-03-31T12:46:10.547Z,43.28
2017-03-31T12:47:19.827Z,43.37
2017-03-31T12:48:28.732Z,44.05
2017-03-31T12:49:37.636Z,44.05
2017-03-31T12:50:46.896Z,44.24
2017-03-31T12:51:55.852Z,43.95
2017-03-31T12:53:04.905Z,43.66
2017-03-31T12:54:13.806Z,43.85
2017-03-31T12:55:22.719Z,43.49
2017-03-31T12:56:31.629Z,43.49
2017-03-31T12:57:40.530Z,43.4
2017-03-31T12:58:49.731Z,43.1
2017-03-31T12:59:58.636Z,43.4
2017-03-31T13:01:07.596Z,43.3
2017-03-31T13:02:16.682Z,43.49
2017-03-31T13:03:25.598Z,43.4
2017-03-31T13:04:34.664Z,41.94
2017-03-31T13:05:43.615Z,41.56
2017-03-31T13:06:52.523Z,42.04
2017-03-31T13:08:01.457Z,42.21
2017-03-31T13:09:10.692Z,42.43
2017-03-31T13:10:19.905Z,43.2
2017-03-31T13:11:29.138Z,42.24
2017-03-31T13:12:38.040Z,43.2
2017-03-31T13:13:46.947Z,42.24
2017-03-31T13:14:56.174Z,42.04
2017-03-31T13:16:05.522Z,41.66
2017-03-31T13:17:14.429Z,41.66
2017-03-31T13:18:23.335Z,41.46
2017-03-31T13:19:32.238Z,42.14
2017-03-31T13:20:42.361Z,41.46
2017-03-31T13:21:51.420Z,41.27
2017-03-31T13:23:00.321Z,41.36
2017-03-31T13:24:09.227Z,42.04
2017-03-31T13:25:18.178Z,41.94
2017-03-31T13:26:27.124Z,42.14
2017-03-31T13:27:36.500Z,42.21
2017-03-31T13:28:45.404Z,42.6
2017-03-31T13:29:54.636Z,42.91
2017-03-31T13:31:04.188Z,42.6
2017-03-31T13:32:13.091Z,42.99
2017-03-31T13:33:22.155Z,43.37
2017-03-31T13:34:31.054Z,43.76
2017-03-31T13:35:39.953Z,44.34
2017-03-31T13:36:48.859Z,44.46
2017-03-31T13:37:57.764Z,43.3
2017-03-31T13:39:07.144Z,43.3
2017-03-31T13:40:16.045Z,43.1
2017-03-31T13:41:24.952Z,44.17
2017-03-31T13:42:34.177Z,43.4
2017-03-31T13:43:43.083Z,42.62
2017-03-31T13:44:52.286Z,42.52
2017-03-31T13:46:01.185Z,41.58
2017-03-31T13:47:10.093Z,41.87
2017-03-31T13:48:18.998Z,41.19
2017-03-31T13:49:27.898Z,41.29
2017-03-31T13:50:36.859Z,40.32
2017-03-31T13:51:46.095Z,40.42
2017-03-31T13:52:55.329Z,39.95
2017-03-31T13:54:04.241Z,39.47
2017-03-31T13:55:13.471Z,39.67
2017-03-31T13:56:22.851Z,39.37
2017-03-31T13:57:31.758Z,39.09
2017-03-31T13:58:40.665Z,39.37
2017-03-31T13:59:49.571Z,39.18
2017-03-31T14:00:58.808Z,38.13
2017-03-31T14:02:07.715Z,39.11
2017-03-31T14:03:16.634Z,38.81
2017-03-31T14:04:25.542Z,38.33
2017-03-31T14:05:34.780Z,38.43
2017-03-31T14:06:43.688Z,38.81
2017-03-31T14:07:52.747Z,38.53
2017-03-31T14:09:01.984Z,38.23
2017-03-31T14:10:10.896Z,38.13
2017-03-31T14:11:19.803Z,36.8
2017-03-31T14:12:29.040Z,37.67
2017-03-31T14:13:38.098Z,37.19
2017-03-31T14:14:47.006Z,37.19
2017-03-31T14:15:56.572Z,37.38
2017-03-31T14:17:05.488Z,37.96
2017-03-31T14:18:14.399Z,37.19
2017-03-31T14:19:23.306Z,36.51
2017-03-31T14:20:32.552Z,36.43
2017-03-31T14:21:41.464Z,36.72
2017-03-31T14:22:50.377Z,35.77
2017-03-31T14:23:59.293Z,35.48
2017-03-31T14:25:08.253Z,34.7
2017-03-31T14:26:17.162Z,35.38
2017-03-31T14:27:26.076Z,35.38
2017-03-31T14:28:34.987Z,34.89
2017-03-31T14:29:44.222Z,34.8
2017-03-31T14:30:53.430Z,35.38
2017-03-31T14:32:02.344Z,34.8
2017-03-31T14:33:11.259Z,35.96
2017-03-31T14:34:20.197Z,35.07
2017-03-31T14:35:29.436Z,34.89
2017-03-31T14:36:38.495Z,34.89
2017-03-31T14:37:47.406Z,34.8
2017-03-31T14:38:56.319Z,34.91
2017-03-31T14:40:05.567Z,34.72
2017-03-31T14:41:14.499Z,35.01
2017-03-31T14:42:23.564Z,34.89
2017-03-31T14:43:32.808Z,34.23
2017-03-31T14:44:41.725Z,34.53
2017-03-31T14:45:50.962Z,34.23
2017-03-31T14:47:00.201Z,33.94
2017-03-31T14:48:09.410Z,34.14
2017-03-31T14:49:18.324Z,35.11
2017-03-31T14:50:27.565Z,33.94
2017-03-31T14:51:36.475Z,32.87